sensor_id;sensor_type;location;lat;lon;timestamp;P1;durP1;ratioP1;P2;durP2;ratioP2
20945;SDS011;10632;51.276;7.116;2022-08-03T00:01:59;3.30;;;1.75;;
20945;SDS011;10632;51.276;7.116;2022-08-03T00:04:28;4.10;;;1.90;;
20945;SDS011;10632;51.276;7.116;2022-08-03T00:06:55;6.30;;;1.95;;
20945;SDS011;10632;51.276;7.116;2022-08-03T00:09:22;4.72;;;2.20;;
20945;SDS011;10632;51.276;7.116;2022-08-03T00:11:49;6.50;;;2.00;;
20945;SDS011;10632;51.276;7.116;2022-08-03T00:14:16;5.47;;;2.28;;
20945;SDS011;10632;51.276;7.116;2022-08-03T00:16:44;6.40;;;1.90;;
20945;SDS011;10632;51.276;7.116;2022-08-03T00:19:11;3.45;;;1.80;;
20945;SDS011;10632;51.276;7.116;2022-08-03T00:21:41;6.38;;;1.70;;
20945;SDS011;10632;51.276;7.116;2022-08-03T00:24:08;5.25;;;1.70;;
20945;SDS011;10632;51.276;7.116;2022-08-03T00:26:35;5.60;;;1.50;;
20945;SDS011;10632;51.276;7.116;2022-08-03T00:29:02;3.53;;;1.52;;
20945;SDS011;10632;51.276;7.116;2022-08-03T00:31:29;5.07;;;1.52;;
20945;SDS011;10632;51.276;7.116;2022-08-03T00:33:57;3.67;;;1.50;;
20945;SDS011;10632;51.276;7.116;2022-08-03T00:36:24;3.47;;;1.58;;
20945;SDS011;10632;51.276;7.116;2022-08-03T00:38:51;6.35;;;1.45;;
20945;SDS011;10632;51.276;7.116;2022-08-03T00:41:18;7.00;;;1.77;;
20945;SDS011;10632;51.276;7.116;2022-08-03T00:43:45;5.20;;;1.55;;
20945;SDS011;10632;51.276;7.116;2022-08-03T00:46:12;5.18;;;1.67;;
20945;SDS011;10632;51.276;7.116;2022-08-03T00:48:39;8.57;;;1.60;;
20945;SDS011;10632;51.276;7.116;2022-08-03T00:51:07;3.05;;;1.52;;
20945;SDS011;10632;51.276;7.116;2022-08-03T00:53:37;4.53;;;1.70;;
20945;SDS011;10632;51.276;7.116;2022-08-03T00:56:04;6.35;;;1.50;;
20945;SDS011;10632;51.276;7.116;2022-08-03T00:58:31;8.05;;;1.80;;
20945;SDS011;10632;51.276;7.116;2022-08-03T01:00:58;4.50;;;1.77;;
20945;SDS011;10632;51.276;7.116;2022-08-03T01:03:25;8.52;;;1.65;;
20945;SDS011;10632;51.276;7.116;2022-08-03T01:05:55;4.03;;;1.67;;
20945;SDS011;10632;51.276;7.116;2022-08-03T01:08:30;5.72;;;2.00;;
20945;SDS011;10632;51.276;7.116;2022-08-03T01:11:05;3.75;;;1.70;;
20945;SDS011;10632;51.276;7.116;2022-08-03T01:13:40;3.97;;;1.60;;
20945;SDS011;10632;51.276;7.116;2022-08-03T01:16:14;5.38;;;1.75;;
20945;SDS011;10632;51.276;7.116;2022-08-03T01:18:50;3.75;;;1.70;;
20945;SDS011;10632;51.276;7.116;2022-08-03T01:21:25;4.75;;;1.65;;
20945;SDS011;10632;51.276;7.116;2022-08-03T01:24:05;3.10;;;1.45;;
20945;SDS011;10632;51.276;7.116;2022-08-03T01:26:52;5.72;;;1.50;;
20945;SDS011;10632;51.276;7.116;2022-08-03T01:32:01;6.13;;;1.70;;
20945;SDS011;10632;51.276;7.116;2022-08-03T01:34:34;4.03;;;1.80;;
20945;SDS011;10632;51.276;7.116;2022-08-03T01:37:06;3.88;;;1.60;;
20945;SDS011;10632;51.276;7.116;2022-08-03T01:39:35;3.30;;;1.60;;
20945;SDS011;10632;51.276;7.116;2022-08-03T01:42:05;5.45;;;1.73;;
20945;SDS011;10632;51.276;7.116;2022-08-03T01:44:36;3.80;;;1.60;;
20945;SDS011;10632;51.276;7.116;2022-08-03T01:47:07;3.92;;;1.60;;
20945;SDS011;10632;51.276;7.116;2022-08-03T01:49:37;4.85;;;1.77;;
20945;SDS011;10632;51.276;7.116;2022-08-03T01:52:08;3.17;;;1.48;;
20945;SDS011;10632;51.276;7.116;2022-08-03T01:54:39;3.72;;;1.80;;
20945;SDS011;10632;51.276;7.116;2022-08-03T01:57:08;3.88;;;1.50;;
20945;SDS011;10632;51.276;7.116;2022-08-03T01:59:38;6.03;;;1.60;;
20945;SDS011;10632;51.276;7.116;2022-08-03T02:02:09;5.90;;;1.70;;
20945;SDS011;10632;51.276;7.116;2022-08-03T02:04:39;6.38;;;1.60;;
20945;SDS011;10632;51.276;7.116;2022-08-03T02:07:07;6.30;;;1.67;;
20945;SDS011;10632;51.276;7.116;2022-08-03T02:09:36;4.93;;;1.80;;
20945;SDS011;10632;51.276;7.116;2022-08-03T02:12:06;4.25;;;1.52;;
20945;SDS011;10632;51.276;7.116;2022-08-03T02:14:34;6.00;;;1.80;;
20945;SDS011;10632;51.276;7.116;2022-08-03T02:17:05;3.90;;;1.77;;
20945;SDS011;10632;51.276;7.116;2022-08-03T02:19:34;6.22;;;1.70;;
20945;SDS011;10632;51.276;7.116;2022-08-03T02:22:03;3.50;;;1.52;;
20945;SDS011;10632;51.276;7.116;2022-08-03T02:24:31;4.05;;;1.73;;
20945;SDS011;10632;51.276;7.116;2022-08-03T02:26:58;6.03;;;1.70;;
20945;SDS011;10632;51.276;7.116;2022-08-03T02:29:27;3.53;;;1.42;;
20945;SDS011;10632;51.276;7.116;2022-08-03T02:31:57;2.70;;;1.38;;
20945;SDS011;10632;51.276;7.116;2022-08-03T02:34:28;5.72;;;1.70;;
20945;SDS011;10632;51.276;7.116;2022-08-03T02:37:00;4.53;;;1.70;;
20945;SDS011;10632;51.276;7.116;2022-08-03T02:39:29;3.47;;;1.58;;
20945;SDS011;10632;51.276;7.116;2022-08-03T02:41:58;4.32;;;1.60;;
20945;SDS011;10632;51.276;7.116;2022-08-03T02:44:27;4.25;;;1.70;;
20945;SDS011;10632;51.276;7.116;2022-08-03T02:46:58;4.13;;;1.73;;
20945;SDS011;10632;51.276;7.116;2022-08-03T02:49:28;3.33;;;1.70;;
20945;SDS011;10632;51.276;7.116;2022-08-03T02:51:56;3.38;;;1.65;;
20945;SDS011;10632;51.276;7.116;2022-08-03T02:54:26;3.53;;;1.50;;
20945;SDS011;10632;51.276;7.116;2022-08-03T02:56:56;8.77;;;1.70;;
20945;SDS011;10632;51.276;7.116;2022-08-03T02:59:24;3.80;;;1.52;;
20945;SDS011;10632;51.276;7.116;2022-08-03T03:01:53;3.33;;;1.63;;
20945;SDS011;10632;51.276;7.116;2022-08-03T03:04:21;5.68;;;1.35;;
20945;SDS011;10632;51.276;7.116;2022-08-03T03:06:50;3.10;;;1.50;;
20945;SDS011;10632;51.276;7.116;2022-08-03T03:09:19;3.92;;;1.80;;
20945;SDS011;10632;51.276;7.116;2022-08-03T03:11:48;3.35;;;1.73;;
20945;SDS011;10632;51.276;7.116;2022-08-03T03:14:16;3.67;;;1.67;;
20945;SDS011;10632;51.276;7.116;2022-08-03T03:16:45;5.68;;;1.60;;
20945;SDS011;10632;51.276;7.116;2022-08-03T03:19:14;3.05;;;1.70;;
20945;SDS011;10632;51.276;7.116;2022-08-03T03:21:43;3.38;;;1.60;;
20945;SDS011;10632;51.276;7.116;2022-08-03T03:24:11;3.28;;;1.75;;
20945;SDS011;10632;51.276;7.116;2022-08-03T03:26:40;3.67;;;1.70;;
20945;SDS011;10632;51.276;7.116;2022-08-03T03:29:08;2.53;;;1.30;;
20945;SDS011;10632;51.276;7.116;2022-08-03T03:31:36;5.07;;;1.90;;
20945;SDS011;10632;51.276;7.116;2022-08-03T03:34:03;4.35;;;1.92;;
20945;SDS011;10632;51.276;7.116;2022-08-03T03:36:30;2.90;;;1.50;;
20945;SDS011;10632;51.276;7.116;2022-08-03T03:38:57;3.67;;;1.80;;
20945;SDS011;10632;51.276;7.116;2022-08-03T03:41:24;4.10;;;1.73;;
20945;SDS011;10632;51.276;7.116;2022-08-03T03:43:52;6.30;;;2.15;;
20945;SDS011;10632;51.276;7.116;2022-08-03T03:46:19;3.33;;;1.48;;
20945;SDS011;10632;51.276;7.116;2022-08-03T03:48:46;3.63;;;1.70;;
20945;SDS011;10632;51.276;7.116;2022-08-03T03:51:14;6.13;;;1.90;;
20945;SDS011;10632;51.276;7.116;2022-08-03T03:53:52;3.80;;;1.70;;
20945;SDS011;10632;51.276;7.116;2022-08-03T03:56:20;4.13;;;1.80;;
20945;SDS011;10632;51.276;7.116;2022-08-03T03:58:47;2.83;;;1.70;;
20945;SDS011;10632;51.276;7.116;2022-08-03T04:01:15;6.43;;;1.95;;
20945;SDS011;10632;51.276;7.116;2022-08-03T04:03:43;4.28;;;1.73;;
20945;SDS011;10632;51.276;7.116;2022-08-03T04:06:10;4.97;;;1.95;;
20945;SDS011;10632;51.276;7.116;2022-08-03T04:08:55;3.13;;;1.80;;
20945;SDS011;10632;51.276;7.116;2022-08-03T04:11:40;2.78;;;1.60;;
20945;SDS011;10632;51.276;7.116;2022-08-03T04:14:14;4.22;;;1.65;;
20945;SDS011;10632;51.276;7.116;2022-08-03T04:16:46;4.05;;;1.75;;
20945;SDS011;10632;51.276;7.116;2022-08-03T04:19:17;5.25;;;1.50;;
20945;SDS011;10632;51.276;7.116;2022-08-03T04:21:51;4.78;;;1.60;;
20945;SDS011;10632;51.276;7.116;2022-08-03T04:24:21;5.30;;;1.75;;
20945;SDS011;10632;51.276;7.116;2022-08-03T04:26:52;6.28;;;1.50;;
20945;SDS011;10632;51.276;7.116;2022-08-03T04:29:20;6.95;;;1.70;;
20945;SDS011;10632;51.276;7.116;2022-08-03T04:31:51;4.68;;;2.00;;
20945;SDS011;10632;51.276;7.116;2022-08-03T04:34:20;6.00;;;1.90;;
20945;SDS011;10632;51.276;7.116;2022-08-03T04:36:48;4.22;;;1.75;;
20945;SDS011;10632;51.276;7.116;2022-08-03T04:39:22;3.88;;;1.73;;
20945;SDS011;10632;51.276;7.116;2022-08-03T04:41:50;2.65;;;1.50;;
20945;SDS011;10632;51.276;7.116;2022-08-03T04:44:19;3.58;;;1.63;;
20945;SDS011;10632;51.276;7.116;2022-08-03T04:46:50;3.80;;;1.77;;
20945;SDS011;10632;51.276;7.116;2022-08-03T04:49:19;3.28;;;1.58;;
20945;SDS011;10632;51.276;7.116;2022-08-03T04:51:46;4.38;;;1.92;;
20945;SDS011;10632;51.276;7.116;2022-08-03T04:54:14;3.80;;;2.20;;
20945;SDS011;10632;51.276;7.116;2022-08-03T04:56:42;3.35;;;1.88;;
20945;SDS011;10632;51.276;7.116;2022-08-03T04:59:09;4.40;;;1.80;;
20945;SDS011;10632;51.276;7.116;2022-08-03T05:01:38;4.85;;;2.22;;
20945;SDS011;10632;51.276;7.116;2022-08-03T05:04:07;5.18;;;2.30;;
20945;SDS011;10632;51.276;7.116;2022-08-03T05:06:34;4.32;;;2.30;;
20945;SDS011;10632;51.276;7.116;2022-08-03T05:09:01;4.25;;;2.30;;
20945;SDS011;10632;51.276;7.116;2022-08-03T05:11:28;4.90;;;2.42;;
20945;SDS011;10632;51.276;7.116;2022-08-03T05:13:55;6.13;;;2.08;;
20945;SDS011;10632;51.276;7.116;2022-08-03T05:16:22;7.10;;;2.53;;
20945;SDS011;10632;51.276;7.116;2022-08-03T05:18:50;6.15;;;2.78;;
20945;SDS011;10632;51.276;7.116;2022-08-03T05:21:19;6.03;;;2.97;;
20945;SDS011;10632;51.276;7.116;2022-08-03T05:23:46;5.78;;;2.90;;
20945;SDS011;10632;51.276;7.116;2022-08-03T05:26:16;5.18;;;2.80;;
20945;SDS011;10632;51.276;7.116;2022-08-03T05:28:43;6.55;;;2.95;;
20945;SDS011;10632;51.276;7.116;2022-08-03T05:31:12;5.40;;;3.03;;
20945;SDS011;10632;51.276;7.116;2022-08-03T05:33:39;7.72;;;2.90;;
20945;SDS011;10632;51.276;7.116;2022-08-03T05:36:07;8.98;;;2.88;;
20945;SDS011;10632;51.276;7.116;2022-08-03T05:38:39;6.28;;;3.00;;
20945;SDS011;10632;51.276;7.116;2022-08-03T05:41:06;6.10;;;2.70;;
20945;SDS011;10632;51.276;7.116;2022-08-03T05:43:33;5.30;;;2.80;;
20945;SDS011;10632;51.276;7.116;2022-08-03T05:46:00;6.40;;;2.90;;
20945;SDS011;10632;51.276;7.116;2022-08-03T05:48:27;6.18;;;2.70;;
20945;SDS011;10632;51.276;7.116;2022-08-03T05:50:54;9.05;;;3.15;;
20945;SDS011;10632;51.276;7.116;2022-08-03T05:53:21;6.22;;;2.97;;
20945;SDS011;10632;51.276;7.116;2022-08-03T05:55:49;4.30;;;2.50;;
20945;SDS011;10632;51.276;7.116;2022-08-03T05:58:16;5.70;;;3.08;;
20945;SDS011;10632;51.276;7.116;2022-08-03T06:00:43;7.25;;;2.65;;
20945;SDS011;10632;51.276;7.116;2022-08-03T06:03:12;6.97;;;2.85;;
20945;SDS011;10632;51.276;7.116;2022-08-03T06:05:39;6.00;;;3.08;;
20945;SDS011;10632;51.276;7.116;2022-08-03T06:08:06;5.15;;;2.80;;
20945;SDS011;10632;51.276;7.116;2022-08-03T06:10:33;5.97;;;3.03;;
20945;SDS011;10632;51.276;7.116;2022-08-03T06:13:01;8.77;;;3.63;;
20945;SDS011;10632;51.276;7.116;2022-08-03T06:15:28;5.78;;;3.10;;
20945;SDS011;10632;51.276;7.116;2022-08-03T06:17:57;5.38;;;2.67;;
20945;SDS011;10632;51.276;7.116;2022-08-03T06:20:24;6.43;;;2.72;;
20945;SDS011;10632;51.276;7.116;2022-08-03T06:22:51;5.03;;;2.53;;
20945;SDS011;10632;51.276;7.116;2022-08-03T06:25:18;5.28;;;2.60;;
20945;SDS011;10632;51.276;7.116;2022-08-03T06:27:45;5.15;;;2.67;;
20945;SDS011;10632;51.276;7.116;2022-08-03T06:30:14;5.85;;;2.20;;
20945;SDS011;10632;51.276;7.116;2022-08-03T06:32:43;4.78;;;2.60;;
20945;SDS011;10632;51.276;7.116;2022-08-03T06:35:10;5.68;;;2.47;;
20945;SDS011;10632;51.276;7.116;2022-08-03T06:37:40;7.57;;;2.42;;
20945;SDS011;10632;51.276;7.116;2022-08-03T06:40:09;9.23;;;2.70;;
20945;SDS011;10632;51.276;7.116;2022-08-03T06:42:37;7.60;;;2.60;;
20945;SDS011;10632;51.276;7.116;2022-08-03T06:45:05;4.40;;;2.35;;
20945;SDS011;10632;51.276;7.116;2022-08-03T06:47:35;4.72;;;2.55;;
20945;SDS011;10632;51.276;7.116;2022-08-03T06:50:02;7.43;;;2.70;;
20945;SDS011;10632;51.276;7.116;2022-08-03T06:52:29;4.72;;;2.42;;
20945;SDS011;10632;51.276;7.116;2022-08-03T06:54:57;4.13;;;2.25;;
20945;SDS011;10632;51.276;7.116;2022-08-03T06:57:24;6.28;;;2.30;;
20945;SDS011;10632;51.276;7.116;2022-08-03T06:59:51;6.82;;;2.35;;
20945;SDS011;10632;51.276;7.116;2022-08-03T07:02:18;4.20;;;2.42;;
20945;SDS011;10632;51.276;7.116;2022-08-03T07:04:46;7.00;;;2.30;;
20945;SDS011;10632;51.276;7.116;2022-08-03T07:07:14;6.13;;;2.33;;
20945;SDS011;10632;51.276;7.116;2022-08-03T07:09:41;4.75;;;2.20;;
20945;SDS011;10632;51.276;7.116;2022-08-03T07:12:08;5.85;;;2.10;;
20945;SDS011;10632;51.276;7.116;2022-08-03T07:14:35;5.72;;;2.20;;
20945;SDS011;10632;51.276;7.116;2022-08-03T07:17:04;6.80;;;2.45;;
20945;SDS011;10632;51.276;7.116;2022-08-03T07:19:31;5.50;;;2.20;;
20945;SDS011;10632;51.276;7.116;2022-08-03T07:21:59;8.07;;;2.40;;
20945;SDS011;10632;51.276;7.116;2022-08-03T07:24:27;4.55;;;2.05;;
20945;SDS011;10632;51.276;7.116;2022-08-03T07:26:54;4.22;;;2.10;;
20945;SDS011;10632;51.276;7.116;2022-08-03T07:29:21;3.85;;;2.03;;
20945;SDS011;10632;51.276;7.116;2022-08-03T07:31:49;3.72;;;2.03;;
20945;SDS011;10632;51.276;7.116;2022-08-03T07:34:16;4.45;;;2.20;;
20945;SDS011;10632;51.276;7.116;2022-08-03T07:36:43;4.47;;;2.20;;
20945;SDS011;10632;51.276;7.116;2022-08-03T07:39:11;4.82;;;2.38;;
20945;SDS011;10632;51.276;7.116;2022-08-03T07:41:38;4.60;;;2.08;;
20945;SDS011;10632;51.276;7.116;2022-08-03T07:44:05;3.65;;;1.90;;
20945;SDS011;10632;51.276;7.116;2022-08-03T07:46:34;4.55;;;2.08;;
20945;SDS011;10632;51.276;7.116;2022-08-03T07:49:01;6.18;;;2.13;;
20945;SDS011;10632;51.276;7.116;2022-08-03T07:51:30;4.40;;;2.35;;
20945;SDS011;10632;51.276;7.116;2022-08-03T07:53:57;7.93;;;2.45;;
20945;SDS011;10632;51.276;7.116;2022-08-03T07:56:26;4.35;;;2.10;;
20945;SDS011;10632;51.276;7.116;2022-08-03T07:58:53;5.38;;;2.20;;
20945;SDS011;10632;51.276;7.116;2022-08-03T08:01:21;6.22;;;2.03;;
20945;SDS011;10632;51.276;7.116;2022-08-03T08:03:48;5.97;;;2.20;;
20945;SDS011;10632;51.276;7.116;2022-08-03T08:06:16;4.07;;;2.10;;
20945;SDS011;10632;51.276;7.116;2022-08-03T08:08:43;5.22;;;2.10;;
20945;SDS011;10632;51.276;7.116;2022-08-03T08:11:10;10.77;;;2.25;;
20945;SDS011;10632;51.276;7.116;2022-08-03T08:13:40;5.78;;;2.03;;
20945;SDS011;10632;51.276;7.116;2022-08-03T08:16:07;3.75;;;2.00;;
20945;SDS011;10632;51.276;7.116;2022-08-03T08:18:34;4.35;;;2.15;;
20945;SDS011;10632;51.276;7.116;2022-08-03T08:21:01;5.15;;;1.80;;
20945;SDS011;10632;51.276;7.116;2022-08-03T08:23:28;8.27;;;2.05;;
20945;SDS011;10632;51.276;7.116;2022-08-03T08:25:55;3.72;;;2.10;;
20945;SDS011;10632;51.276;7.116;2022-08-03T08:28:22;5.22;;;2.10;;
20945;SDS011;10632;51.276;7.116;2022-08-03T08:30:53;3.55;;;1.98;;
20945;SDS011;10632;51.276;7.116;2022-08-03T08:33:20;6.43;;;2.22;;
20945;SDS011;10632;51.276;7.116;2022-08-03T08:35:47;3.83;;;1.98;;
20945;SDS011;10632;51.276;7.116;2022-08-03T08:38:14;5.05;;;1.95;;
20945;SDS011;10632;51.276;7.116;2022-08-03T08:40:41;5.57;;;2.20;;
20945;SDS011;10632;51.276;7.116;2022-08-03T08:43:08;6.32;;;1.98;;
20945;SDS011;10632;51.276;7.116;2022-08-03T08:45:35;4.80;;;2.08;;
20945;SDS011;10632;51.276;7.116;2022-08-03T08:48:05;5.78;;;1.70;;
20945;SDS011;10632;51.276;7.116;2022-08-03T08:50:34;2.70;;;1.48;;
20945;SDS011;10632;51.276;7.116;2022-08-03T08:53:03;3.90;;;1.88;;
20945;SDS011;10632;51.276;7.116;2022-08-03T08:55:32;7.25;;;1.92;;
20945;SDS011;10632;51.276;7.116;2022-08-03T08:58:01;6.20;;;1.75;;
20945;SDS011;10632;51.276;7.116;2022-08-03T09:00:30;3.28;;;1.73;;
20945;SDS011;10632;51.276;7.116;2022-08-03T09:02:57;3.30;;;1.80;;
20945;SDS011;10632;51.276;7.116;2022-08-03T09:05:27;6.80;;;1.70;;
20945;SDS011;10632;51.276;7.116;2022-08-03T09:07:56;5.18;;;1.90;;
20945;SDS011;10632;51.276;7.116;2022-08-03T09:10:24;4.22;;;1.95;;
20945;SDS011;10632;51.276;7.116;2022-08-03T09:12:51;5.63;;;1.80;;
20945;SDS011;10632;51.276;7.116;2022-08-03T09:15:19;4.32;;;1.85;;
20945;SDS011;10632;51.276;7.116;2022-08-03T09:17:48;6.30;;;1.70;;
20945;SDS011;10632;51.276;7.116;2022-08-03T09:20:17;3.33;;;1.70;;
20945;SDS011;10632;51.276;7.116;2022-08-03T09:22:57;6.43;;;1.80;;
20945;SDS011;10632;51.276;7.116;2022-08-03T09:25:26;5.38;;;1.80;;
20945;SDS011;10632;51.276;7.116;2022-08-03T09:27:54;4.43;;;1.90;;
20945;SDS011;10632;51.276;7.116;2022-08-03T09:30:34;6.90;;;1.58;;
20945;SDS011;10632;51.276;7.116;2022-08-03T09:33:02;4.88;;;1.80;;
20945;SDS011;10632;51.276;7.116;2022-08-03T09:35:30;10.23;;;2.50;;
20945;SDS011;10632;51.276;7.116;2022-08-03T09:38:08;4.00;;;1.60;;
20945;SDS011;10632;51.276;7.116;2022-08-03T09:40:37;3.50;;;1.55;;
20945;SDS011;10632;51.276;7.116;2022-08-03T09:43:04;4.93;;;1.58;;
20945;SDS011;10632;51.276;7.116;2022-08-03T09:45:32;4.38;;;1.75;;
20945;SDS011;10632;51.276;7.116;2022-08-03T09:50:49;4.00;;;1.60;;
20945;SDS011;10632;51.276;7.116;2022-08-03T09:53:18;2.67;;;1.50;;
20945;SDS011;10632;51.276;7.116;2022-08-03T09:55:49;4.10;;;1.67;;
20945;SDS011;10632;51.276;7.116;2022-08-03T09:58:20;3.97;;;1.85;;
20945;SDS011;10632;51.276;7.116;2022-08-03T10:00:52;9.77;;;1.88;;
20945;SDS011;10632;51.276;7.116;2022-08-03T10:03:20;2.30;;;1.50;;
20945;SDS011;10632;51.276;7.116;2022-08-03T10:05:47;6.28;;;1.95;;
20945;SDS011;10632;51.276;7.116;2022-08-03T10:08:14;3.90;;;2.00;;
20945;SDS011;10632;51.276;7.116;2022-08-03T10:10:44;4.38;;;1.92;;
20945;SDS011;10632;51.276;7.116;2022-08-03T10:13:15;7.30;;;1.92;;
20945;SDS011;10632;51.276;7.116;2022-08-03T10:15:43;6.90;;;1.70;;
20945;SDS011;10632;51.276;7.116;2022-08-03T10:18:10;4.80;;;1.80;;
20945;SDS011;10632;51.276;7.116;2022-08-03T10:20:40;8.88;;;2.40;;
20945;SDS011;10632;51.276;7.116;2022-08-03T10:23:10;5.40;;;2.08;;
20945;SDS011;10632;51.276;7.116;2022-08-03T10:25:39;5.18;;;2.00;;
20945;SDS011;10632;51.276;7.116;2022-08-03T10:28:11;3.30;;;1.83;;
20945;SDS011;10632;51.276;7.116;2022-08-03T10:30:40;6.22;;;1.35;;
20945;SDS011;10632;51.276;7.116;2022-08-03T10:33:14;5.90;;;1.55;;
20945;SDS011;10632;51.276;7.116;2022-08-03T10:35:44;6.15;;;1.77;;
20945;SDS011;10632;51.276;7.116;2022-08-03T10:38:15;6.00;;;1.80;;
20945;SDS011;10632;51.276;7.116;2022-08-03T10:40:45;3.03;;;1.58;;
20945;SDS011;10632;51.276;7.116;2022-08-03T10:43:20;7.00;;;1.50;;
20945;SDS011;10632;51.276;7.116;2022-08-03T10:45:51;7.40;;;1.90;;
20945;SDS011;10632;51.276;7.116;2022-08-03T10:48:18;5.97;;;1.30;;
20945;SDS011;10632;51.276;7.116;2022-08-03T10:50:47;4.10;;;1.50;;
20945;SDS011;10632;51.276;7.116;2022-08-03T10:53:14;4.00;;;1.50;;
20945;SDS011;10632;51.276;7.116;2022-08-03T10:55:42;4.50;;;1.50;;
20945;SDS011;10632;51.276;7.116;2022-08-03T10:58:49;5.22;;;1.33;;
20945;SDS011;10632;51.276;7.116;2022-08-03T11:01:17;3.95;;;1.60;;
20945;SDS011;10632;51.276;7.116;2022-08-03T11:06:41;4.80;;;1.63;;
20945;SDS011;10632;51.276;7.116;2022-08-03T11:09:15;5.28;;;1.70;;
20945;SDS011;10632;51.276;7.116;2022-08-03T11:11:46;5.20;;;1.50;;
20945;SDS011;10632;51.276;7.116;2022-08-03T11:14:16;3.38;;;1.50;;
20945;SDS011;10632;51.276;7.116;2022-08-03T11:16:46;4.25;;;1.60;;
20945;SDS011;10632;51.276;7.116;2022-08-03T11:19:16;2.92;;;1.50;;
20945;SDS011;10632;51.276;7.116;2022-08-03T11:21:51;4.20;;;1.60;;
20945;SDS011;10632;51.276;7.116;2022-08-03T11:27:23;4.15;;;1.60;;
20945;SDS011;10632;51.276;7.116;2022-08-03T11:29:56;4.47;;;1.48;;
20945;SDS011;10632;51.276;7.116;2022-08-03T11:35:18;2.60;;;1.27;;
20945;SDS011;10632;51.276;7.116;2022-08-03T11:40:37;5.80;;;1.45;;
20945;SDS011;10632;51.276;7.116;2022-08-03T11:43:06;5.88;;;1.70;;
20945;SDS011;10632;51.276;7.116;2022-08-03T11:45:36;3.08;;;1.40;;
20945;SDS011;10632;51.276;7.116;2022-08-03T11:48:12;2.60;;;1.20;;
20945;SDS011;10632;51.276;7.116;2022-08-03T11:50:41;4.20;;;1.42;;
20945;SDS011;10632;51.276;7.116;2022-08-03T11:53:14;2.58;;;1.30;;
20945;SDS011;10632;51.276;7.116;2022-08-03T11:55:43;5.30;;;1.40;;
20945;SDS011;10632;51.276;7.116;2022-08-03T11:58:19;5.53;;;1.30;;
20945;SDS011;10632;51.276;7.116;2022-08-03T12:00:49;2.70;;;1.30;;
20945;SDS011;10632;51.276;7.116;2022-08-03T12:03:16;4.22;;;1.20;;
20945;SDS011;10632;51.276;7.116;2022-08-03T12:05:47;2.75;;;1.05;;
20945;SDS011;10632;51.276;7.116;2022-08-03T12:08:17;3.60;;;1.40;;
20945;SDS011;10632;51.276;7.116;2022-08-03T12:10:55;2.40;;;1.20;;
20945;SDS011;10632;51.276;7.116;2022-08-03T12:13:24;4.53;;;1.08;;
20945;SDS011;10632;51.276;7.116;2022-08-03T12:15:55;6.57;;;1.30;;
20945;SDS011;10632;51.276;7.116;2022-08-03T12:18:23;5.95;;;1.30;;
20945;SDS011;10632;51.276;7.116;2022-08-03T12:20:51;6.10;;;1.33;;
20945;SDS011;10632;51.276;7.116;2022-08-03T12:23:28;2.45;;;1.02;;
20945;SDS011;10632;51.276;7.116;2022-08-03T12:26:00;3.20;;;1.00;;
20945;SDS011;10632;51.276;7.116;2022-08-03T12:28:27;3.08;;;1.20;;
20945;SDS011;10632;51.276;7.116;2022-08-03T12:30:59;4.80;;;1.20;;
20945;SDS011;10632;51.276;7.116;2022-08-03T12:33:27;3.47;;;1.10;;
20945;SDS011;10632;51.276;7.116;2022-08-03T12:36:01;2.83;;;1.10;;
20945;SDS011;10632;51.276;7.116;2022-08-03T12:38:34;5.30;;;1.20;;
20945;SDS011;10632;51.276;7.116;2022-08-03T12:41:04;4.90;;;1.33;;
20945;SDS011;10632;51.276;7.116;2022-08-03T12:43:32;3.55;;;1.20;;
20945;SDS011;10632;51.276;7.116;2022-08-03T12:46:08;4.40;;;1.17;;
20945;SDS011;10632;51.276;7.116;2022-08-03T12:51:25;2.72;;;1.40;;
20945;SDS011;10632;51.276;7.116;2022-08-03T12:53:53;4.93;;;1.42;;
20945;SDS011;10632;51.276;7.116;2022-08-03T12:56:21;4.97;;;1.30;;
20945;SDS011;10632;51.276;7.116;2022-08-03T12:58:48;4.85;;;1.33;;
20945;SDS011;10632;51.276;7.116;2022-08-03T13:01:17;4.20;;;1.30;;
20945;SDS011;10632;51.276;7.116;2022-08-03T13:03:46;9.35;;;1.45;;
20945;SDS011;10632;51.276;7.116;2022-08-03T13:06:14;5.35;;;1.30;;
20945;SDS011;10632;51.276;7.116;2022-08-03T13:08:43;1.90;;;1.10;;
20945;SDS011;10632;51.276;7.116;2022-08-03T13:11:18;6.03;;;1.08;;
20945;SDS011;10632;51.276;7.116;2022-08-03T13:13:46;2.78;;;1.10;;
20945;SDS011;10632;51.276;7.116;2022-08-03T13:16:13;2.58;;;1.00;;
20945;SDS011;10632;51.276;7.116;2022-08-03T13:18:42;3.92;;;1.10;;
20945;SDS011;10632;51.276;7.116;2022-08-03T13:21:11;5.13;;;1.20;;
20945;SDS011;10632;51.276;7.116;2022-08-03T13:23:38;5.60;;;1.35;;
20945;SDS011;10632;51.276;7.116;2022-08-03T13:26:05;5.15;;;1.10;;
20945;SDS011;10632;51.276;7.116;2022-08-03T13:28:32;5.22;;;1.08;;
20945;SDS011;10632;51.276;7.116;2022-08-03T13:31:00;3.72;;;1.00;;
20945;SDS011;10632;51.276;7.116;2022-08-03T13:33:32;6.78;;;1.20;;
20945;SDS011;10632;51.276;7.116;2022-08-03T13:36:06;1.67;;;0.90;;
20945;SDS011;10632;51.276;7.116;2022-08-03T13:38:37;3.60;;;0.88;;
20945;SDS011;10632;51.276;7.116;2022-08-03T13:41:07;3.97;;;1.10;;
20945;SDS011;10632;51.276;7.116;2022-08-03T13:43:34;5.72;;;1.13;;
20945;SDS011;10632;51.276;7.116;2022-08-03T13:46:01;5.45;;;1.15;;
20945;SDS011;10632;51.276;7.116;2022-08-03T13:48:28;6.20;;;1.20;;
20945;SDS011;10632;51.276;7.116;2022-08-03T13:50:56;3.67;;;1.05;;
20945;SDS011;10632;51.276;7.116;2022-08-03T13:53:25;7.47;;;1.10;;
20945;SDS011;10632;51.276;7.116;2022-08-03T13:55:54;2.00;;;1.08;;
20945;SDS011;10632;51.276;7.116;2022-08-03T13:58:23;6.80;;;1.10;;
20945;SDS011;10632;51.276;7.116;2022-08-03T14:00:56;8.63;;;1.20;;
20945;SDS011;10632;51.276;7.116;2022-08-03T14:03:23;3.45;;;1.00;;
20945;SDS011;10632;51.276;7.116;2022-08-03T14:05:50;4.47;;;1.00;;
20945;SDS011;10632;51.276;7.116;2022-08-03T14:08:17;5.38;;;1.02;;
20945;SDS011;10632;51.276;7.116;2022-08-03T14:10:47;4.78;;;0.98;;
20945;SDS011;10632;51.276;7.116;2022-08-03T14:13:14;6.90;;;1.20;;
20945;SDS011;10632;51.276;7.116;2022-08-03T14:15:44;3.33;;;1.05;;
20945;SDS011;10632;51.276;7.116;2022-08-03T14:18:18;2.70;;;1.10;;
20945;SDS011;10632;51.276;7.116;2022-08-03T14:20:48;4.30;;;1.05;;
20945;SDS011;10632;51.276;7.116;2022-08-03T14:23:18;3.20;;;1.10;;
20945;SDS011;10632;51.276;7.116;2022-08-03T14:25:55;2.15;;;0.90;;
20945;SDS011;10632;51.276;7.116;2022-08-03T14:28:25;3.00;;;1.00;;
20945;SDS011;10632;51.276;7.116;2022-08-03T14:30:53;3.67;;;1.02;;
20945;SDS011;10632;51.276;7.116;2022-08-03T14:33:22;3.75;;;0.88;;
20945;SDS011;10632;51.276;7.116;2022-08-03T14:35:52;4.38;;;1.10;;
20945;SDS011;10632;51.276;7.116;2022-08-03T14:38:19;3.83;;;0.98;;
20945;SDS011;10632;51.276;7.116;2022-08-03T14:40:47;5.13;;;0.98;;
20945;SDS011;10632;51.276;7.116;2022-08-03T14:43:17;2.65;;;1.02;;
20945;SDS011;10632;51.276;7.116;2022-08-03T14:45:45;5.80;;;1.20;;
20945;SDS011;10632;51.276;7.116;2022-08-03T14:48:12;3.85;;;1.05;;
20945;SDS011;10632;51.276;7.116;2022-08-03T14:50:39;2.22;;;1.00;;
20945;SDS011;10632;51.276;7.116;2022-08-03T14:53:06;3.78;;;1.33;;
20945;SDS011;10632;51.276;7.116;2022-08-03T14:55:35;4.28;;;1.30;;
20945;SDS011;10632;51.276;7.116;2022-08-03T14:58:03;2.22;;;1.05;;
20945;SDS011;10632;51.276;7.116;2022-08-03T15:00:34;2.50;;;1.10;;
20945;SDS011;10632;51.276;7.116;2022-08-03T15:03:01;1.98;;;0.88;;
20945;SDS011;10632;51.276;7.116;2022-08-03T15:05:28;2.65;;;1.00;;
20945;SDS011;10632;51.276;7.116;2022-08-03T15:07:55;4.03;;;1.25;;
20945;SDS011;10632;51.276;7.116;2022-08-03T15:10:23;3.20;;;1.05;;
20945;SDS011;10632;51.276;7.116;2022-08-03T15:12:53;4.70;;;1.00;;
20945;SDS011;10632;51.276;7.116;2022-08-03T15:15:20;4.85;;;0.90;;
20945;SDS011;10632;51.276;7.116;2022-08-03T15:17:48;3.15;;;1.10;;
20945;SDS011;10632;51.276;7.116;2022-08-03T15:20:19;2.35;;;1.02;;